createdAt,value
2018-12-11T00:00:00.623Z,4.80
2018-12-11T00:01:04.056Z,4.80
2018-12-11T00:02:08.182Z,4.80
2018-12-11T00:03:11.413Z,4.80
2018-12-11T00:04:14.645Z,4.80
2018-12-11T00:05:17.958Z,4.80
2018-12-11T00:06:21.216Z,4.80
2018-12-11T00:07:24.463Z,4.80
2018-12-11T00:08:27.765Z,4.80
2018-12-11T00:09:31.043Z,4.80
2018-12-11T00:10:34.265Z,4.90
2018-12-11T00:11:37.502Z,4.90
2018-12-11T00:12:40.751Z,4.90
2018-12-11T00:13:43.998Z,4.90
2018-12-11T00:14:47.263Z,4.90
2018-12-11T00:15:50.483Z,4.90
2018-12-11T00:16:53.775Z,4.90
2018-12-11T00:17:57.009Z,4.90
2018-12-11T00:19:00.245Z,4.90
2018-12-11T00:20:04.266Z,4.90
2018-12-11T00:21:07.508Z,4.90
2018-12-11T00:22:10.780Z,5.00
2018-12-11T00:23:14.047Z,5.10
2018-12-11T00:24:17.275Z,4.90
2018-12-11T00:25:20.523Z,5.00
2018-12-11T00:26:23.836Z,5.00
2018-12-11T00:27:27.120Z,5.00
2018-12-11T00:28:30.374Z,5.00
2018-12-11T00:29:33.647Z,5.00
2018-12-11T00:30:36.879Z,5.00
2018-12-11T00:31:40.120Z,5.00
2018-12-11T00:32:43.382Z,5.00
2018-12-11T00:33:46.604Z,5.00
2018-12-11T00:34:49.859Z,5.00
2018-12-11T00:35:53.086Z,5.00
2018-12-11T00:36:56.352Z,5.00
2018-12-11T00:37:59.564Z,5.00
2018-12-11T00:39:04.145Z,5.10
2018-12-11T00:40:07.450Z,5.10
2018-12-11T00:41:10.692Z,5.00
2018-12-11T00:42:14.147Z,5.00
2018-12-11T00:43:17.373Z,5.10
2018-12-11T00:44:20.632Z,5.10
2018-12-11T00:45:23.862Z,5.10
2018-12-11T00:46:27.112Z,5.10
2018-12-11T00:47:30.497Z,5.10
2018-12-11T00:48:33.713Z,5.10
2018-12-11T00:49:36.966Z,5.10
2018-12-11T00:50:40.274Z,5.10
2018-12-11T00:51:43.510Z,5.10
2018-12-11T00:52:46.758Z,5.10
2018-12-11T00:53:50.029Z,5.10
2018-12-11T00:54:53.324Z,5.10
2018-12-11T00:55:56.591Z,5.10
2018-12-11T00:57:00.082Z,5.10
2018-12-11T00:58:03.490Z,5.10
2018-12-11T00:59:06.876Z,5.10
2018-12-11T01:00:10.298Z,5.10
2018-12-11T01:01:13.735Z,5.10
2018-12-11T01:02:17.114Z,5.10
2018-12-11T01:03:20.356Z,5.10
2018-12-11T01:04:25.508Z,5.10
2018-12-11T01:05:28.731Z,5.10
2018-12-11T01:06:32.001Z,5.10
2018-12-11T01:07:35.315Z,5.10
2018-12-11T01:08:38.609Z,5.10
2018-12-11T01:09:41.854Z,5.10
2018-12-11T01:10:45.110Z,5.10
2018-12-11T01:11:48.481Z,5.10
2018-12-11T01:12:51.743Z,5.10
2018-12-11T01:13:55.062Z,5.10
2018-12-11T01:14:58.290Z,5.10
2018-12-11T01:16:01.521Z,5.10
2018-12-11T01:17:04.801Z,5.10
2018-12-11T01:18:08.052Z,5.10
2018-12-11T01:19:11.302Z,5.00
2018-12-11T01:20:14.531Z,5.10
2018-12-11T01:21:17.790Z,5.00
2018-12-11T01:22:21.045Z,5.10
2018-12-11T01:23:24.279Z,5.00
2018-12-11T01:24:27.522Z,5.00
2018-12-11T01:25:30.800Z,5.00
2018-12-11T01:26:34.046Z,5.00
2018-12-11T01:27:37.982Z,5.00
2018-12-11T01:28:41.211Z,5.00
2018-12-11T01:29:44.458Z,5.00
2018-12-11T01:30:47.943Z,5.00
2018-12-11T01:31:51.242Z,5.00
2018-12-11T01:32:54.463Z,5.00
2018-12-11T01:33:57.798Z,5.00
2018-12-11T01:35:01.267Z,5.00
2018-12-11T01:36:04.524Z,5.00
2018-12-11T01:37:07.772Z,4.90
2018-12-11T01:38:11.043Z,5.00
2018-12-11T01:39:14.292Z,4.90
2018-12-11T01:40:17.531Z,4.90
2018-12-11T01:41:20.784Z,4.90
2018-12-11T01:42:24.009Z,4.90
2018-12-11T01:43:27.252Z,4.90
2018-12-11T01:44:30.537Z,4.90
2018-12-11T01:45:33.774Z,5.00
2018-12-11T01:46:38.342Z,5.00
2018-12-11T01:47:41.786Z,5.00
2018-12-11T01:48:45.050Z,5.00
2018-12-11T01:49:48.278Z,5.00
2018-12-11T01:50:51.562Z,5.00
2018-12-11T01:51:54.797Z,5.00
2018-12-11T01:52:58.222Z,5.00
2018-12-11T01:54:01.490Z,5.00
2018-12-11T01:55:05.068Z,5.00
2018-12-11T01:56:08.357Z,5.00
2018-12-11T01:57:12.310Z,5.00
2018-12-11T01:58:15.590Z,5.00
2018-12-11T01:59:18.994Z,4.90
2018-12-11T02:00:23.792Z,5.00
2018-12-11T02:01:27.100Z,5.00
2018-12-11T02:02:30.398Z,5.00
2018-12-11T02:03:33.631Z,4.90
2018-12-11T02:04:36.902Z,4.90
2018-12-11T02:05:40.180Z,4.90
2018-12-11T02:06:43.434Z,4.90
2018-12-11T02:07:49.631Z,4.90
2018-12-11T02:08:58.930Z,4.90
2018-12-11T02:10:08.410Z,4.90
2018-12-11T02:11:17.693Z,4.90
2018-12-11T02:12:21.231Z,4.90
2018-12-11T02:13:24.476Z,4.90
2018-12-11T02:14:27.706Z,4.90
2018-12-11T02:15:30.939Z,4.90
2018-12-11T02:16:34.174Z,4.90
2018-12-11T02:17:37.420Z,4.90
2018-12-11T02:18:40.653Z,4.90
2018-12-11T02:19:43.914Z,4.90
2018-12-11T02:20:47.179Z,4.90
2018-12-11T02:21:50.400Z,4.90
2018-12-11T02:22:54.086Z,4.90
2018-12-11T02:23:57.354Z,4.90
2018-12-11T02:25:00.577Z,4.90
2018-12-11T02:26:03.810Z,4.90
2018-12-11T02:27:07.060Z,4.90
2018-12-11T02:28:10.313Z,4.90
2018-12-11T02:29:13.536Z,4.90
2018-12-11T02:30:16.781Z,4.90
2018-12-11T02:31:20.162Z,4.90
2018-12-11T02:32:23.404Z,4.90
2018-12-11T02:33:26.625Z,4.90
2018-12-11T02:34:29.881Z,4.90
2018-12-11T02:35:33.247Z,4.90
2018-12-11T02:36:36.458Z,4.90
2018-12-11T02:37:39.766Z,4.90
2018-12-11T02:38:42.998Z,4.90
2018-12-11T02:39:46.236Z,4.90
2018-12-11T02:40:49.492Z,4.90
2018-12-11T02:41:52.748Z,4.90
2018-12-11T02:42:56.092Z,4.90
2018-12-11T02:43:59.412Z,4.90
2018-12-11T02:45:02.816Z,4.90
2018-12-11T02:46:06.266Z,4.90
2018-12-11T02:47:09.584Z,4.90
2018-12-11T02:48:12.921Z,4.90
2018-12-11T02:49:16.179Z,4.90
2018-12-11T02:50:19.430Z,4.90
2018-12-11T02:51:22.770Z,4.90
2018-12-11T02:52:26.132Z,4.90
2018-12-11T02:53:29.569Z,4.90
2018-12-11T02:54:32.817Z,4.90
2018-12-11T02:55:36.145Z,4.80
2018-12-11T02:56:39.435Z,4.90
2018-12-11T02:57:42.686Z,4.90
2018-12-11T02:58:45.923Z,4.90
2018-12-11T02:59:49.166Z,4.80
2018-12-11T03:00:52.472Z,4.90
2018-12-11T03:01:55.710Z,4.80
2018-12-11T03:02:59.128Z,4.80
2018-12-11T03:04:02.359Z,4.80
2018-12-11T03:05:05.741Z,4.80
2018-12-11T03:06:09.187Z,4.80
2018-12-11T03:07:12.844Z,4.80
2018-12-11T03:08:16.122Z,4.80
2018-12-11T03:09:19.364Z,4.80
2018-12-11T03:10:22.593Z,4.80
2018-12-11T03:11:25.833Z,4.80
2018-12-11T03:12:29.186Z,4.80
2018-12-11T03:13:32.534Z,4.90
2018-12-11T03:14:35.845Z,4.80
2018-12-11T03:15:39.151Z,4.80
2018-12-11T03:16:42.401Z,4.80
2018-12-11T03:17:45.721Z,4.80
2018-12-11T03:18:49.139Z,4.80
2018-12-11T03:19:52.390Z,4.80
2018-12-11T03:20:55.679Z,4.80
2018-12-11T03:21:58.929Z,4.80
2018-12-11T03:23:02.162Z,4.80
2018-12-11T03:24:05.437Z,4.80
2018-12-11T03:25:08.664Z,4.80
2018-12-11T03:26:11.975Z,4.80
2018-12-11T03:27:15.234Z,4.80
2018-12-11T03:28:18.445Z,4.80
2018-12-11T03:29:21.739Z,4.80
2018-12-11T03:30:25.091Z,4.80
2018-12-11T03:31:28.359Z,4.80
2018-12-11T03:32:31.684Z,4.80
2018-12-11T03:33:34.947Z,4.80
2018-12-11T03:34:38.263Z,4.70
2018-12-11T03:35:41.550Z,4.50
2018-12-11T03:36:44.850Z,4.70
2018-12-11T03:37:48.213Z,4.70
2018-12-11T03:38:51.446Z,4.80
2018-12-11T03:39:54.789Z,4.80
2018-12-11T03:40:58.371Z,4.80
2018-12-11T03:42:03.001Z,4.70
2018-12-11T03:43:06.312Z,4.80
2018-12-11T03:44:09.571Z,4.80
2018-12-11T03:45:12.876Z,4.70
2018-12-11T03:46:16.110Z,4.70
2018-12-11T03:47:19.358Z,4.70
2018-12-11T03:48:22.667Z,4.70
2018-12-11T03:49:26.031Z,4.70
2018-12-11T03:50:29.256Z,4.70
2018-12-11T03:51:32.591Z,4.70
2018-12-11T03:52:35.911Z,4.80
2018-12-11T03:53:39.136Z,4.70
2018-12-11T03:54:42.398Z,4.70
2018-12-11T03:55:45.651Z,4.70
2018-12-11T03:56:48.978Z,4.70
2018-12-11T03:57:52.247Z,4.80
2018-12-11T03:58:55.564Z,4.80
2018-12-11T03:59:58.853Z,4.70
2018-12-11T04:01:02.096Z,4.80
2018-12-11T04:02:05.460Z,4.70
2018-12-11T04:03:08.758Z,4.70
2018-12-11T04:04:12.041Z,4.80
2018-12-11T04:05:15.273Z,4.80
2018-12-11T04:06:18.512Z,4.80
2018-12-11T04:07:21.775Z,4.80
2018-12-11T04:08:25.775Z,4.80
2018-12-11T04:09:29.023Z,4.80
2018-12-11T04:10:32.259Z,4.80
2018-12-11T04:11:35.548Z,4.80
2018-12-11T04:12:38.776Z,4.80
2018-12-11T04:13:42.054Z,4.80
2018-12-11T04:14:45.491Z,4.80
2018-12-11T04:15:48.808Z,4.90
2018-12-11T04:16:52.121Z,4.90
2018-12-11T04:17:55.364Z,4.90
2018-12-11T04:18:58.713Z,4.90
2018-12-11T04:20:02.018Z,4.90
2018-12-11T04:21:05.279Z,4.90
2018-12-11T04:22:08.527Z,4.90
2018-12-11T04:23:11.765Z,4.90
2018-12-11T04:24:14.995Z,4.90
2018-12-11T04:25:18.247Z,4.90
2018-12-11T04:26:21.518Z,4.90
2018-12-11T04:27:24.774Z,4.90
2018-12-11T04:28:28.396Z,4.90
2018-12-11T04:29:31.693Z,4.90
2018-12-11T04:30:34.921Z,4.90
2018-12-11T04:31:38.150Z,4.90
2018-12-11T04:32:41.533Z,4.90
2018-12-11T04:33:44.847Z,4.90
2018-12-11T04:34:48.095Z,4.90
2018-12-11T04:35:51.354Z,4.90
2018-12-11T04:36:54.627Z,5.00
2018-12-11T04:37:57.871Z,5.00
2018-12-11T04:39:01.144Z,5.00
2018-12-11T04:40:05.864Z,5.00
2018-12-11T04:41:09.085Z,5.00
2018-12-11T04:42:12.405Z,5.00
2018-12-11T04:43:15.690Z,5.00
2018-12-11T04:44:19.002Z,5.00
2018-12-11T04:45:22.365Z,5.00
2018-12-11T04:46:25.626Z,5.00
2018-12-11T04:47:28.870Z,5.00
2018-12-11T04:48:32.132Z,5.00
2018-12-11T04:49:35.374Z,5.00
2018-12-11T04:50:38.718Z,5.00
2018-12-11T04:51:41.964Z,5.00
2018-12-11T04:52:45.198Z,5.00
2018-12-11T04:53:48.453Z,5.00
2018-12-11T04:54:51.699Z,5.00
2018-12-11T04:55:54.960Z,5.00
2018-12-11T04:56:58.267Z,5.00
2018-12-11T04:58:01.476Z,5.00
2018-12-11T04:59:04.735Z,5.00
2018-12-11T05:00:08.098Z,5.00
2018-12-11T05:01:11.365Z,5.00
2018-12-11T05:02:14.623Z,5.00
2018-12-11T05:03:17.944Z,5.00
2018-12-11T05:04:21.295Z,5.00
2018-12-11T05:05:24.568Z,5.00
2018-12-11T05:06:27.848Z,5.00
2018-12-11T05:07:31.118Z,5.00
2018-12-11T05:08:34.420Z,5.00
2018-12-11T05:09:37.669Z,5.00
2018-12-11T05:10:40.888Z,5.00
2018-12-11T05:11:44.144Z,5.00
2018-12-11T05:12:47.390Z,5.00
2018-12-11T05:13:51.241Z,5.00
2018-12-11T05:14:54.530Z,5.00
2018-12-11T05:15:57.805Z,5.00
2018-12-11T05:17:01.268Z,5.10
2018-12-11T05:18:04.558Z,5.00
2018-12-11T05:19:07.910Z,5.00
2018-12-11T05:20:11.140Z,5.00
2018-12-11T05:21:14.375Z,5.00
2018-12-11T05:22:17.616Z,5.00
2018-12-11T05:23:20.924Z,5.10
2018-12-11T05:24:24.165Z,5.10
2018-12-11T05:25:27.407Z,5.10
2018-12-11T05:26:30.647Z,5.00
2018-12-11T05:27:33.899Z,5.00
2018-12-11T05:28:37.231Z,5.00
2018-12-11T05:29:40.514Z,5.00
2018-12-11T05:30:43.731Z,5.00
2018-12-11T05:31:46.979Z,5.00
2018-12-11T05:32:50.203Z,5.00
2018-12-11T05:33:53.723Z,5.00
2018-12-11T05:34:56.959Z,5.00
2018-12-11T05:36:00.194Z,5.00
2018-12-11T05:37:03.675Z,5.00
2018-12-11T05:38:06.986Z,5.00
2018-12-11T05:39:10.227Z,5.00
2018-12-11T05:40:13.499Z,5.00
2018-12-11T05:41:16.782Z,5.00
2018-12-11T05:42:20.002Z,4.90
2018-12-11T05:43:23.237Z,4.90
2018-12-11T05:44:26.556Z,4.90
2018-12-11T05:45:29.799Z,4.90
2018-12-11T05:46:33.067Z,4.90
2018-12-11T05:47:36.409Z,4.90
2018-12-11T05:48:39.655Z,4.90
2018-12-11T05:49:42.896Z,4.90
2018-12-11T05:50:46.238Z,5.00
2018-12-11T05:51:49.488Z,4.90
2018-12-11T05:52:52.735Z,5.00
2018-12-11T05:53:55.956Z,4.90
2018-12-11T05:54:59.192Z,4.90
2018-12-11T05:56:02.438Z,4.90
2018-12-11T05:57:05.676Z,4.90
2018-12-11T05:58:09.001Z,4.90
2018-12-11T05:59:12.252Z,5.00
2018-12-11T06:00:15.533Z,4.90
2018-12-11T06:01:18.845Z,4.90
2018-12-11T06:02:22.108Z,4.90
2018-12-11T06:03:25.391Z,4.90
2018-12-11T06:04:28.746Z,4.90
2018-12-11T06:05:32.135Z,5.00
2018-12-11T06:06:35.383Z,4.90
2018-12-11T06:07:38.675Z,5.00
2018-12-11T06:08:42.222Z,4.90
2018-12-11T06:09:45.543Z,4.90
2018-12-11T06:10:48.797Z,5.00
2018-12-11T06:11:52.067Z,5.00
2018-12-11T06:12:55.360Z,5.00
2018-12-11T06:13:58.589Z,5.00
2018-12-11T06:15:01.864Z,5.00
2018-12-11T06:16:05.136Z,5.10
2018-12-11T06:17:08.374Z,5.00
2018-12-11T06:18:11.656Z,5.10
2018-12-11T06:19:15.262Z,5.10
2018-12-11T06:20:19.003Z,5.10
2018-12-11T06:21:22.492Z,5.10
2018-12-11T06:22:25.717Z,5.10
2018-12-11T06:23:29.008Z,5.10
2018-12-11T06:24:32.307Z,5.10
2018-12-11T06:25:35.573Z,5.00
2018-12-11T06:26:39.001Z,5.00
2018-12-11T06:27:42.288Z,5.00
2018-12-11T06:28:45.526Z,5.00
2018-12-11T06:29:48.797Z,5.00
2018-12-11T06:30:52.048Z,5.00
2018-12-11T06:31:55.276Z,5.00
2018-12-11T06:32:58.515Z,4.90
2018-12-11T06:34:01.771Z,4.90
2018-12-11T06:35:05.191Z,4.90
2018-12-11T06:36:08.451Z,4.90
2018-12-11T06:37:11.719Z,4.90
2018-12-11T06:38:15.058Z,4.90
2018-12-11T06:39:18.360Z,4.90
2018-12-11T06:40:21.711Z,4.90
2018-12-11T06:41:24.928Z,4.80
2018-12-11T06:42:28.268Z,4.80
2018-12-11T06:43:31.493Z,4.80
2018-12-11T06:44:34.724Z,4.80
2018-12-11T06:45:38.043Z,4.80
2018-12-11T06:46:41.322Z,4.80
2018-12-11T06:47:44.581Z,4.80
2018-12-11T06:48:47.823Z,4.80
2018-12-11T06:49:51.121Z,4.80
2018-12-11T06:50:54.400Z,4.80
2018-12-11T06:51:57.730Z,4.80
2018-12-11T06:53:00.971Z,4.90
2018-12-11T06:54:04.231Z,4.90
2018-12-11T06:55:07.551Z,4.90
2018-12-11T06:56:10.799Z,4.90
2018-12-11T06:57:14.109Z,4.90
2018-12-11T06:58:17.392Z,4.90
2018-12-11T06:59:20.589Z,4.90
2018-12-11T07:00:23.859Z,4.90
2018-12-11T07:01:27.165Z,4.90
2018-12-11T07:02:30.438Z,4.90
2018-12-11T07:03:33.710Z,4.90
2018-12-11T07:04:37.160Z,4.90
2018-12-11T07:05:40.397Z,4.90
2018-12-11T07:06:44.014Z,4.90
2018-12-11T07:07:47.247Z,4.90
2018-12-11T07:08:50.681Z,4.90
2018-12-11T07:09:53.928Z,4.90
2018-12-11T07:10:57.255Z,4.90
2018-12-11T07:12:00.605Z,4.80
2018-12-11T07:13:03.893Z,4.80
2018-12-11T07:14:07.152Z,4.80
2018-12-11T07:15:10.453Z,4.80
2018-12-11T07:16:13.727Z,4.80
2018-12-11T07:17:17.067Z,4.80
2018-12-11T07:18:25.809Z,4.70
2018-12-11T07:19:25.597Z,4.80
2018-12-11T07:20:28.921Z,4.70
2018-12-11T07:21:32.238Z,4.70
2018-12-11T07:22:35.547Z,4.70
2018-12-11T07:23:38.817Z,4.70
2018-12-11T07:24:42.044Z,4.60
2018-12-11T07:25:45.299Z,4.60
2018-12-11T07:26:48.526Z,4.70
2018-12-11T07:27:51.816Z,4.60
2018-12-11T07:28:55.145Z,4.60
2018-12-11T07:29:58.474Z,4.60
2018-12-11T07:31:01.772Z,4.60
2018-12-11T07:32:05.175Z,4.60
2018-12-11T07:33:08.434Z,4.60
2018-12-11T07:34:11.706Z,4.60
2018-12-11T07:35:15.111Z,4.60
2018-12-11T07:36:18.428Z,4.70
2018-12-11T07:37:21.665Z,4.70
2018-12-11T07:38:25.050Z,4.70
2018-12-11T07:39:28.323Z,4.70
2018-12-11T07:40:31.562Z,4.90
2018-12-11T07:41:35.340Z,4.70
2018-12-11T07:42:38.633Z,4.70
2018-12-11T07:43:41.902Z,4.80
2018-12-11T07:44:45.214Z,4.70
2018-12-11T07:45:48.592Z,4.70
2018-12-11T07:46:51.839Z,4.80
2018-12-11T07:47:55.106Z,4.80
2018-12-11T07:50:08.227Z,4.80
2018-12-11T07:51:11.453Z,4.80
2018-12-11T07:52:14.756Z,4.80
2018-12-11T07:53:18.133Z,4.80
2018-12-11T07:54:26.864Z,4.80
2018-12-11T07:55:31.993Z,4.80
2018-12-11T07:56:36.699Z,4.80
2018-12-11T07:57:40.824Z,4.70
2018-12-11T07:58:44.950Z,4.70
2018-12-11T07:59:49.323Z,4.70
2018-12-11T08:00:52.563Z,4.70
2018-12-11T08:01:56.337Z,4.60
2018-12-11T08:03:01.766Z,4.60
2018-12-11T08:04:08.831Z,4.60
2018-12-11T08:05:12.780Z,4.60
2018-12-11T08:06:17.162Z,4.60
2018-12-11T08:07:20.867Z,4.60
2018-12-11T08:08:25.051Z,4.60
2018-12-11T08:09:28.306Z,4.60
2018-12-11T08:10:31.561Z,4.60
2018-12-11T08:11:34.931Z,4.60
2018-12-11T08:12:38.208Z,4.50
2018-12-11T08:13:41.443Z,4.60
2018-12-11T08:14:44.675Z,4.60
2018-12-11T08:15:49.855Z,4.50
2018-12-11T08:16:53.102Z,4.50
2018-12-11T08:17:56.369Z,4.50
2018-12-11T08:18:59.617Z,4.50
2018-12-11T08:20:02.928Z,4.60
2018-12-11T08:21:06.183Z,4.60
2018-12-11T08:22:09.485Z,4.60
2018-12-11T08:23:12.767Z,4.60
2018-12-11T08:24:16.009Z,4.60
2018-12-11T08:25:19.254Z,4.70
2018-12-11T08:26:22.960Z,4.60
2018-12-11T08:27:27.307Z,4.70
2018-12-11T08:28:30.598Z,4.70
2018-12-11T08:29:33.826Z,4.70
2018-12-11T08:30:37.118Z,4.70
2018-12-11T08:31:40.385Z,4.70
2018-12-11T08:32:43.726Z,4.80
2018-12-11T08:33:46.947Z,4.80
2018-12-11T08:34:50.188Z,4.80
2018-12-11T08:35:53.660Z,4.80
2018-12-11T08:36:57.290Z,4.90
2018-12-11T08:38:00.615Z,4.90
2018-12-11T08:39:05.701Z,4.90
2018-12-11T08:40:08.947Z,4.90
2018-12-11T08:41:12.249Z,4.90
2018-12-11T08:42:15.596Z,5.00
2018-12-11T08:43:18.856Z,5.00
2018-12-11T08:44:22.116Z,5.00
2018-12-11T08:45:25.344Z,5.00
2018-12-11T08:46:29.500Z,5.00
2018-12-11T08:47:32.784Z,5.00
2018-12-11T08:48:36.018Z,5.10
2018-12-11T08:49:39.683Z,5.10
2018-12-11T08:50:43.131Z,5.10
2018-12-11T08:51:46.406Z,5.10
2018-12-11T08:52:49.769Z,5.10
2018-12-11T08:53:54.733Z,5.10
2018-12-11T08:54:58.942Z,5.10
2018-12-11T08:56:02.446Z,5.10
2018-12-11T08:57:05.695Z,5.10
2018-12-11T08:58:10.222Z,5.10
2018-12-11T08:59:13.711Z,5.10
2018-12-11T09:00:17.732Z,5.20
2018-12-11T09:01:21.010Z,5.20
2018-12-11T09:02:24.668Z,5.20
2018-12-11T09:03:27.988Z,5.20
2018-12-11T09:04:31.248Z,5.20
2018-12-11T09:05:34.529Z,5.20
2018-12-11T09:06:38.858Z,5.20
2018-12-11T09:07:42.922Z,5.20
2018-12-11T09:08:47.414Z,5.20
2018-12-11T09:09:51.394Z,5.20
2018-12-11T09:10:54.644Z,5.20
2018-12-11T09:11:57.998Z,5.20
2018-12-11T09:13:01.299Z,5.30
2018-12-11T09:14:04.782Z,5.30
2018-12-11T09:15:08.164Z,5.30
2018-12-11T09:16:11.436Z,5.30
2018-12-11T09:17:14.730Z,5.30
2018-12-11T09:18:17.991Z,5.30
2018-12-11T09:19:21.226Z,5.30
2018-12-11T09:20:24.480Z,5.30
2018-12-11T09:21:27.759Z,5.30
2018-12-11T09:22:31.241Z,5.30
2018-12-11T09:23:34.486Z,5.30
2018-12-11T09:24:37.755Z,5.30
2018-12-11T09:25:40.982Z,5.30
2018-12-11T09:26:44.268Z,5.40
2018-12-11T09:27:47.673Z,5.40
2018-12-11T09:28:51.465Z,5.40
2018-12-11T09:29:54.790Z,5.30
2018-12-11T09:30:58.043Z,5.30
2018-12-11T09:32:01.286Z,5.30
2018-12-11T09:33:04.623Z,5.40
2018-12-11T09:34:07.864Z,5.30
2018-12-11T09:35:11.113Z,5.40
2018-12-11T09:36:14.359Z,5.40
2018-12-11T09:37:17.665Z,5.40
2018-12-11T09:38:20.920Z,5.30
2018-12-11T09:39:24.182Z,5.40
2018-12-11T09:40:27.420Z,5.40
2018-12-11T09:41:30.775Z,5.40
2018-12-11T09:42:34.044Z,5.40
2018-12-11T09:43:37.426Z,5.40
2018-12-11T09:44:40.674Z,5.40
2018-12-11T09:45:43.956Z,5.50
2018-12-11T09:46:47.176Z,5.50
2018-12-11T09:47:50.455Z,5.50
2018-12-11T09:48:53.738Z,5.50
2018-12-11T09:49:56.974Z,5.50
2018-12-11T09:51:00.828Z,5.50
2018-12-11T09:52:04.071Z,5.50
2018-12-11T09:53:07.430Z,5.50
2018-12-11T09:54:10.681Z,5.50
2018-12-11T09:55:14.153Z,5.50
2018-12-11T09:56:17.460Z,5.60
2018-12-11T09:57:20.819Z,5.60
2018-12-11T09:58:24.598Z,5.60
2018-12-11T09:59:27.848Z,5.60
2018-12-11T10:00:31.146Z,5.60
2018-12-11T10:01:34.435Z,5.60
2018-12-11T10:02:37.775Z,5.60
2018-12-11T10:03:41.341Z,5.60
2018-12-11T10:04:44.703Z,5.60
2018-12-11T10:05:48.068Z,5.70
2018-12-11T10:06:51.543Z,5.70
2018-12-11T10:07:54.828Z,5.70
2018-12-11T10:09:01.504Z,5.70
2018-12-11T10:10:04.838Z,5.70
2018-12-11T10:11:08.178Z,5.70
2018-12-11T10:12:11.414Z,5.70
2018-12-11T10:13:14.672Z,5.80
2018-12-11T10:14:19.464Z,5.80
2018-12-11T10:15:22.867Z,5.80
2018-12-11T10:16:26.122Z,5.80
2018-12-11T10:17:30.697Z,5.80
2018-12-11T10:18:34.335Z,5.80
2018-12-11T10:19:37.590Z,5.90
2018-12-11T10:20:41.076Z,5.90
2018-12-11T10:21:44.407Z,5.90
2018-12-11T10:22:47.646Z,5.90
2018-12-11T10:23:50.870Z,5.90
2018-12-11T10:24:54.146Z,5.90
2018-12-11T10:25:57.427Z,5.90
2018-12-11T10:27:01.048Z,5.90
2018-12-11T10:28:04.291Z,6.00
2018-12-11T10:29:07.569Z,6.00
2018-12-11T10:30:10.899Z,6.00
2018-12-11T10:31:14.908Z,6.00
2018-12-11T10:32:18.322Z,6.00
2018-12-11T10:33:21.587Z,6.00
2018-12-11T10:34:24.863Z,6.00
2018-12-11T10:35:28.114Z,6.00
2018-12-11T10:36:31.736Z,6.00
2018-12-11T10:37:36.840Z,6.00
2018-12-11T10:38:40.124Z,6.10
2018-12-11T10:39:43.456Z,6.10
2018-12-11T10:40:46.749Z,6.10
2018-12-11T10:41:50.008Z,6.10
2018-12-11T10:42:53.280Z,6.10
2018-12-11T10:43:56.551Z,6.10
2018-12-11T10:44:59.916Z,6.10
2018-12-11T10:46:07.436Z,6.10
2018-12-11T10:47:10.751Z,6.10
2018-12-11T10:48:13.990Z,6.10
2018-12-11T10:49:17.211Z,6.10
2018-12-11T10:50:20.471Z,6.10
2018-12-11T10:51:24.729Z,6.10
2018-12-11T10:52:28.039Z,6.10
2018-12-11T10:53:31.294Z,6.10
2018-12-11T10:54:34.570Z,6.10
2018-12-11T10:55:37.800Z,6.10
2018-12-11T10:56:41.048Z,6.10
2018-12-11T10:57:44.384Z,6.20
2018-12-11T10:58:47.991Z,6.20
2018-12-11T10:59:51.256Z,6.20
2018-12-11T11:02:28.860Z,6.30
2018-12-11T11:03:32.129Z,6.30
2018-12-11T11:04:35.405Z,6.30
2018-12-11T11:05:39.572Z,6.30
2018-12-11T11:07:52.394Z,6.30
2018-12-11T11:08:55.658Z,6.30
2018-12-11T11:09:58.895Z,6.30
2018-12-11T11:11:02.746Z,6.30
2018-12-11T11:12:06.082Z,6.40
2018-12-11T11:13:09.310Z,6.30
2018-12-11T11:14:12.613Z,6.30
2018-12-11T11:15:16.218Z,6.40
2018-12-11T11:16:19.528Z,6.40
2018-12-11T11:17:22.820Z,6.30
2018-12-11T11:18:27.619Z,6.40
2018-12-11T11:19:30.951Z,6.40
2018-12-11T11:20:34.261Z,6.40
2018-12-11T11:21:37.519Z,6.40
2018-12-11T11:22:41.056Z,6.40
2018-12-11T11:23:44.771Z,6.40
2018-12-11T11:24:49.529Z,6.40
2018-12-11T11:25:53.708Z,6.40
2018-12-11T11:26:57.913Z,6.40
2018-12-11T11:28:02.135Z,6.40
2018-12-11T11:29:06.461Z,6.40
2018-12-11T11:30:10.024Z,6.40
2018-12-11T11:31:14.904Z,6.30
2018-12-11T11:32:18.844Z,6.30
2018-12-11T11:33:22.123Z,6.30
2018-12-11T11:34:25.961Z,6.20
2018-12-11T11:35:31.715Z,6.20
2018-12-11T11:36:35.837Z,6.20
2018-12-11T11:37:42.449Z,6.10
2018-12-11T11:38:46.254Z,6.10
2018-12-11T11:39:49.644Z,6.00
2018-12-11T11:40:53.072Z,6.00
2018-12-11T11:41:56.385Z,5.90
2018-12-11T11:42:59.640Z,5.90
2018-12-11T11:44:04.300Z,5.80
2018-12-11T11:45:08.407Z,5.70
2018-12-11T11:46:11.701Z,5.70
2018-12-11T11:47:14.966Z,5.60
2018-12-11T11:48:18.191Z,5.60
2018-12-11T11:49:21.412Z,5.60
2018-12-11T11:50:24.821Z,5.60
2018-12-11T11:51:28.068Z,5.60
2018-12-11T11:52:31.294Z,5.70
2018-12-11T11:53:34.525Z,5.80
2018-12-11T11:54:37.752Z,5.90
2018-12-11T11:55:40.996Z,6.10
2018-12-11T11:56:44.289Z,6.20
2018-12-11T11:57:47.500Z,6.40
2018-12-11T11:58:50.862Z,6.60
2018-12-11T11:59:55.097Z,6.70
2018-12-11T12:00:58.429Z,6.90
2018-12-11T12:02:01.701Z,7.10
2018-12-11T12:03:04.951Z,7.30
2018-12-11T12:04:08.170Z,7.40
2018-12-11T12:05:11.516Z,7.60
2018-12-11T12:06:14.763Z,7.70
2018-12-11T12:07:18.021Z,7.80
2018-12-11T12:08:21.354Z,7.90
2018-12-11T12:09:24.620Z,8.00
2018-12-11T12:10:27.945Z,8.00
2018-12-11T12:11:31.300Z,8.10
2018-12-11T12:12:34.576Z,8.10
2018-12-11T12:13:38.284Z,8.10
2018-12-11T12:14:48.912Z,8.10
2018-12-11T12:15:47.719Z,8.10
2018-12-11T12:16:51.083Z,8.10
2018-12-11T12:17:54.390Z,8.10
2018-12-11T12:18:57.617Z,8.00
2018-12-11T12:20:00.893Z,8.00
2018-12-11T12:21:04.148Z,7.90
2018-12-11T12:22:07.567Z,7.80
2018-12-11T12:23:10.767Z,7.80
2018-12-11T12:24:14.016Z,7.70
2018-12-11T12:25:17.258Z,7.70
2018-12-11T12:26:20.689Z,7.60
2018-12-11T12:27:23.964Z,7.50
2018-12-11T12:28:27.289Z,7.40
2018-12-11T12:29:30.560Z,7.40
2018-12-11T12:30:34.107Z,7.30
2018-12-11T12:31:38.331Z,7.20
2018-12-11T12:32:41.858Z,7.10
2018-12-11T12:33:45.135Z,7.10
2018-12-11T12:34:48.440Z,7.10
2018-12-11T12:35:51.677Z,7.00
2018-12-11T12:36:54.905Z,6.90
2018-12-11T12:37:58.160Z,6.90
2018-12-11T12:39:01.404Z,6.80
2018-12-11T12:40:04.907Z,6.80
2018-12-11T12:41:08.193Z,6.80
2018-12-11T12:42:11.470Z,6.70
2018-12-11T12:43:14.728Z,6.70
2018-12-11T12:44:18.023Z,6.60
2018-12-11T12:45:21.317Z,6.60
2018-12-11T12:46:24.593Z,6.50
2018-12-11T12:47:27.812Z,6.50
2018-12-11T12:48:31.083Z,6.50
2018-12-11T12:49:34.944Z,6.40
2018-12-11T12:50:38.181Z,6.40
2018-12-11T12:51:41.508Z,6.40
2018-12-11T12:52:46.444Z,6.30
2018-12-11T12:53:52.983Z,6.30
2018-12-11T12:54:56.449Z,6.30
2018-12-11T12:56:02.930Z,6.20
2018-12-11T12:57:06.554Z,6.20
2018-12-11T12:58:11.180Z,6.20
2018-12-11T12:59:15.484Z,6.10
2018-12-11T13:00:18.938Z,6.10
2018-12-11T13:01:22.359Z,6.10
2018-12-11T13:02:25.647Z,6.10
2018-12-11T13:03:34.395Z,6.10
2018-12-11T13:04:39.304Z,6.10
2018-12-11T13:05:44.743Z,6.00
2018-12-11T13:06:48.063Z,6.00
2018-12-11T13:07:52.377Z,6.00
2018-12-11T13:08:55.777Z,6.00
2018-12-11T13:09:59.033Z,6.00
2018-12-11T13:11:02.279Z,6.00
2018-12-11T13:12:05.690Z,6.00
2018-12-11T13:13:09.616Z,6.00
2018-12-11T13:14:12.856Z,6.00
2018-12-11T13:15:17.671Z,6.00
2018-12-11T13:16:21.013Z,6.00
2018-12-11T13:17:25.226Z,6.00
2018-12-11T13:18:28.476Z,6.00
2018-12-11T13:19:35.312Z,6.00
2018-12-11T13:20:38.731Z,5.90
2018-12-11T13:21:44.373Z,5.90
2018-12-11T13:22:48.273Z,5.90
2018-12-11T13:23:51.532Z,5.90
2018-12-11T13:24:54.869Z,5.90
2018-12-11T13:25:58.342Z,5.90
2018-12-11T13:27:02.860Z,5.90
2018-12-11T13:28:08.332Z,5.90
2018-12-11T13:29:11.592Z,5.90
2018-12-11T13:30:15.369Z,5.90
2018-12-11T13:31:19.062Z,5.90
2018-12-11T13:32:24.501Z,5.90
2018-12-11T13:33:27.753Z,5.90
2018-12-11T13:34:31.080Z,5.90
2018-12-11T13:35:34.735Z,5.90
2018-12-11T13:36:37.956Z,5.90
2018-12-11T13:37:45.292Z,5.90
2018-12-11T13:38:50.148Z,5.90
2018-12-11T13:39:55.059Z,5.90
2018-12-11T13:40:58.405Z,5.90
2018-12-11T13:42:01.650Z,5.90
2018-12-11T13:43:05.088Z,5.80
2018-12-11T13:44:08.507Z,5.90
2018-12-11T13:45:11.832Z,5.90
2018-12-11T13:47:49.288Z,5.90
2018-12-11T13:48:52.612Z,5.90
2018-12-11T13:49:55.856Z,5.90
2018-12-11T13:50:59.145Z,5.90
2018-12-11T13:52:02.372Z,5.90
2018-12-11T13:53:05.627Z,5.90
2018-12-11T13:54:09.000Z,5.90
2018-12-11T13:55:12.312Z,5.90
2018-12-11T13:56:15.634Z,5.90
2018-12-11T13:57:19.048Z,5.90
2018-12-11T13:58:22.287Z,5.90
2018-12-11T13:59:25.637Z,5.90
2018-12-11T14:00:28.919Z,5.90
2018-12-11T14:01:32.305Z,5.90
2018-12-11T14:02:35.680Z,5.90
2018-12-11T14:03:38.925Z,5.90
2018-12-11T14:04:42.292Z,5.90
2018-12-11T14:05:45.517Z,5.90
2018-12-11T14:06:48.768Z,5.90
2018-12-11T14:07:52.016Z,5.90
2018-12-11T14:08:55.232Z,5.90
2018-12-11T14:09:58.476Z,5.90